createdAt,value
2024-05-09T00:00:55.249Z,39.19
2024-05-09T00:01:55.189Z,39.21
2024-05-09T00:02:55.140Z,39.20
2024-05-09T00:03:55.141Z,39.19
2024-05-09T00:04:55.187Z,39.18
2024-05-09T00:05:55.132Z,39.21
2024-05-09T00:06:55.020Z,39.21
2024-05-09T00:07:55.027Z,39.20
2024-05-09T00:08:54.951Z,39.20
2024-05-09T00:09:54.892Z,39.18
2024-05-09T00:10:54.998Z,39.18
2024-05-09T00:11:54.873Z,39.18
2024-05-09T00:12:54.825Z,39.18
2024-05-09T00:13:54.784Z,39.17
2024-05-09T00:14:54.756Z,39.16
2024-05-09T00:15:54.702Z,39.16
2024-05-09T00:16:54.736Z,39.19
2024-05-09T00:17:54.855Z,39.15
2024-05-09T00:18:54.629Z,39.17
2024-05-09T00:19:54.605Z,39.15
2024-05-09T00:20:54.579Z,39.17
2024-05-09T00:21:54.547Z,39.14
2024-05-09T00:22:54.543Z,39.14
2024-05-09T00:23:54.490Z,39.13
2024-05-09T00:24:54.468Z,39.12
2024-05-09T00:25:54.529Z,39.13
2024-05-09T00:26:54.427Z,39.12
2024-05-09T00:27:54.411Z,39.12
2024-05-09T00:28:54.405Z,39.12
2024-05-09T00:29:54.351Z,39.12
2024-05-09T00:30:54.321Z,39.12
2024-05-09T00:31:54.366Z,39.11
2024-05-09T00:32:54.368Z,39.12
2024-05-09T00:33:54.311Z,39.10
2024-05-09T00:34:54.183Z,39.13
2024-05-09T00:35:54.131Z,39.14
2024-05-09T00:36:54.093Z,39.11
2024-05-09T00:37:54.138Z,39.11
2024-05-09T00:38:54.043Z,39.11
2024-05-09T00:39:54.011Z,39.09
2024-05-09T00:40:54.042Z,39.09
2024-05-09T00:41:53.950Z,39.11
2024-05-09T00:42:53.911Z,39.12
2024-05-09T00:43:53.908Z,39.07
2024-05-09T00:44:53.873Z,39.06
2024-05-09T00:45:53.865Z,39.09
2024-05-09T00:46:53.808Z,39.08
2024-05-09T00:47:54.064Z,39.07
2024-05-09T00:48:53.818Z,39.07
2024-05-09T00:49:53.765Z,39.06
2024-05-09T00:50:53.687Z,39.05
2024-05-09T00:51:53.684Z,39.04
2024-05-09T00:52:53.672Z,39.05
2024-05-09T00:53:53.594Z,39.06
2024-05-09T00:54:53.550Z,39.05
2024-05-09T00:55:53.523Z,39.05
2024-05-09T00:56:53.509Z,39.03
2024-05-09T00:57:53.462Z,39.03
2024-05-09T00:58:53.459Z,39.02
2024-05-09T00:59:53.396Z,39.02
2024-05-09T01:00:53.379Z,39.03
2024-05-09T01:01:53.444Z,39.01
2024-05-09T01:02:53.412Z,39.03
2024-05-09T01:03:53.380Z,39.01
2024-05-09T01:04:53.412Z,39.01
2024-05-09T01:05:53.273Z,39.01
2024-05-09T01:06:53.203Z,39.00
2024-05-09T01:07:53.178Z,39.00
2024-05-09T01:08:53.129Z,38.98
2024-05-09T01:09:54.056Z,39.00
2024-05-09T01:10:53.268Z,39.00
2024-05-09T01:11:53.051Z,38.98
2024-05-09T01:12:52.899Z,38.97
2024-05-09T01:13:52.870Z,38.97
2024-05-09T01:14:52.779Z,38.97
2024-05-09T01:15:52.735Z,38.96
2024-05-09T01:16:52.696Z,38.96
2024-05-09T01:17:52.906Z,38.96
2024-05-09T01:18:52.746Z,38.96
2024-05-09T01:19:52.654Z,38.95
2024-05-09T01:20:52.507Z,38.95
2024-05-09T01:21:52.433Z,38.93
2024-05-09T01:22:52.396Z,38.95
2024-05-09T01:23:52.301Z,38.94
2024-05-09T01:24:52.250Z,38.92
2024-05-09T01:25:52.276Z,38.92
2024-05-09T01:26:52.170Z,38.92
2024-05-09T01:27:52.146Z,38.91
2024-05-09T01:28:52.128Z,38.91
2024-05-09T01:29:52.068Z,38.91
2024-05-09T01:30:52.030Z,38.91
2024-05-09T01:31:52.071Z,38.89
2024-05-09T01:32:52.099Z,38.88
2024-05-09T01:33:51.998Z,38.90
2024-05-09T01:34:51.976Z,38.89
2024-05-09T01:35:51.872Z,38.89
2024-05-09T01:36:51.854Z,38.89
2024-05-09T01:37:51.813Z,38.87
2024-05-09T01:38:51.780Z,38.87
2024-05-09T01:39:51.722Z,38.88
2024-05-09T01:40:51.726Z,38.86
2024-05-09T01:41:51.669Z,38.87
2024-05-09T01:42:51.637Z,38.86
2024-05-09T01:43:51.631Z,38.86
2024-05-09T01:44:51.572Z,38.85
2024-05-09T01:45:51.553Z,38.85
2024-05-09T01:46:51.547Z,38.85
2024-05-09T01:47:51.696Z,38.83
2024-05-09T01:48:51.564Z,38.85
2024-05-09T01:49:51.460Z,38.83
2024-05-09T01:50:51.420Z,38.83
2024-05-09T01:51:51.384Z,38.83
2024-05-09T01:52:51.381Z,38.83
2024-05-09T01:53:51.339Z,38.81
2024-05-09T01:54:51.305Z,38.82
2024-05-09T01:55:51.316Z,38.84
2024-05-09T01:56:51.257Z,38.80
2024-05-09T01:57:51.252Z,38.81
2024-05-09T01:58:51.229Z,38.78
2024-05-09T01:59:51.198Z,38.81
2024-05-09T02:00:51.140Z,38.78
2024-05-09T02:01:56.752Z,38.79
2024-05-09T02:02:52.263Z,38.80
2024-05-09T02:03:51.272Z,38.78
2024-05-09T02:04:51.014Z,38.76
2024-05-09T02:05:51.075Z,38.77
2024-05-09T02:06:50.853Z,38.76
2024-05-09T02:07:50.860Z,38.75
2024-05-09T02:08:50.730Z,38.77
2024-05-09T02:09:50.685Z,38.76
2024-05-09T02:10:51.076Z,38.76
2024-05-09T02:11:50.666Z,38.72
2024-05-09T02:12:50.521Z,38.73
2024-05-09T02:13:50.501Z,38.72
2024-05-09T02:14:50.412Z,38.72
2024-05-09T02:15:50.355Z,38.71
2024-05-09T02:16:50.315Z,38.73
2024-05-09T02:17:50.466Z,38.71
2024-05-09T02:18:50.285Z,38.70
2024-05-09T02:19:50.221Z,38.69
2024-05-09T02:20:50.174Z,38.68
2024-05-09T02:21:50.084Z,38.69
2024-05-09T02:22:50.092Z,38.68
2024-05-09T02:23:50.016Z,38.67
2024-05-09T02:24:49.996Z,38.67
2024-05-09T02:25:49.964Z,38.68
2024-05-09T02:26:49.936Z,38.65
2024-05-09T02:27:49.888Z,38.66
2024-05-09T02:28:49.963Z,38.64
2024-05-09T02:29:49.814Z,38.64
2024-05-09T02:30:49.813Z,38.65
2024-05-09T02:31:49.795Z,38.62
2024-05-09T02:32:49.853Z,38.63
2024-05-09T02:33:49.989Z,38.61
2024-05-09T02:34:49.733Z,38.61
2024-05-09T02:35:49.627Z,38.62
2024-05-09T02:36:49.613Z,38.60
2024-05-09T02:37:49.618Z,38.58
2024-05-09T02:38:49.529Z,38.62
2024-05-09T02:39:49.495Z,38.60
2024-05-09T02:40:49.479Z,38.59
2024-05-09T02:41:49.439Z,38.59
2024-05-09T02:42:49.401Z,38.57
2024-05-09T02:43:49.419Z,38.58
2024-05-09T02:44:49.337Z,38.56
2024-05-09T02:45:49.350Z,38.56
2024-05-09T02:46:49.375Z,38.57
2024-05-09T02:47:49.431Z,38.55
2024-05-09T02:48:49.337Z,38.53
2024-05-09T02:49:49.263Z,38.55
2024-05-09T02:50:49.263Z,38.52
2024-05-09T02:51:49.143Z,38.51
2024-05-09T02:52:49.241Z,38.51
2024-05-09T02:53:49.096Z,38.48
2024-05-09T02:54:49.032Z,38.50
2024-05-09T02:55:49.044Z,38.50
2024-05-09T02:56:48.974Z,38.49
2024-05-09T02:57:49.051Z,38.47
2024-05-09T02:58:48.971Z,38.48
2024-05-09T02:59:48.879Z,38.46
2024-05-09T03:00:48.954Z,38.45
2024-05-09T03:01:48.930Z,38.45
2024-05-09T03:02:48.983Z,38.45
2024-05-09T03:03:48.895Z,38.42
2024-05-09T03:04:48.875Z,38.43
2024-05-09T03:05:48.753Z,38.40
2024-05-09T03:06:48.682Z,38.43
2024-05-09T03:07:48.719Z,38.42
2024-05-09T03:08:48.630Z,38.40
2024-05-09T03:09:48.580Z,38.40
2024-05-09T03:10:48.598Z,38.40
2024-05-09T03:11:48.670Z,38.39
2024-05-09T03:12:48.501Z,38.38
2024-05-09T03:13:48.474Z,38.39
2024-05-09T03:14:48.402Z,38.38
2024-05-09T03:15:48.368Z,38.38
2024-05-09T03:16:48.336Z,38.37
2024-05-09T03:17:48.528Z,38.37
2024-05-09T03:18:48.325Z,38.36
2024-05-09T03:19:48.244Z,38.35
2024-05-09T03:20:48.267Z,38.35
2024-05-09T03:21:48.183Z,38.34
2024-05-09T03:22:48.147Z,38.34
2024-05-09T03:23:48.174Z,38.33
2024-05-09T03:24:48.081Z,38.30
2024-05-09T03:25:48.071Z,38.31
2024-05-09T03:26:48.007Z,38.31
2024-05-09T03:27:47.971Z,38.30
2024-05-09T03:28:47.971Z,38.31
2024-05-09T03:29:47.920Z,38.29
2024-05-09T03:30:47.860Z,38.27
2024-05-09T03:31:47.942Z,38.29
2024-05-09T03:32:48.024Z,38.29
2024-05-09T03:33:48.007Z,38.27
2024-05-09T03:34:47.733Z,38.27
2024-05-09T03:35:48.139Z,38.27
2024-05-09T03:36:47.768Z,38.27
2024-05-09T03:37:47.632Z,38.27
2024-05-09T03:38:47.593Z,38.25
2024-05-09T03:39:47.916Z,38.25
2024-05-09T03:40:47.902Z,38.24
2024-05-09T03:41:47.545Z,38.23
2024-05-09T03:42:47.469Z,38.22
2024-05-09T03:43:47.473Z,38.22
2024-05-09T03:44:47.399Z,38.23
2024-05-09T03:45:47.385Z,38.23
2024-05-09T03:46:47.380Z,38.23
2024-05-09T03:47:47.459Z,38.20
2024-05-09T03:48:47.356Z,38.22
2024-05-09T03:49:47.283Z,38.19
2024-05-09T03:50:47.389Z,38.21
2024-05-09T03:51:47.192Z,38.18
2024-05-09T03:52:47.200Z,38.20
2024-05-09T03:53:47.164Z,38.19
2024-05-09T03:54:47.126Z,38.19
2024-05-09T03:55:47.155Z,38.17
2024-05-09T03:56:47.044Z,38.16
2024-05-09T03:57:47.027Z,38.17
2024-05-09T03:58:47.131Z,38.14
2024-05-09T03:59:46.961Z,38.16
2024-05-09T04:00:47.046Z,38.16
2024-05-09T04:01:47.054Z,38.17
2024-05-09T04:02:47.035Z,38.13
2024-05-09T04:03:47.137Z,38.14
2024-05-09T04:04:46.917Z,38.14
2024-05-09T04:05:46.775Z,38.13
2024-05-09T04:06:46.719Z,38.13
2024-05-09T04:07:46.777Z,38.13
2024-05-09T04:08:46.725Z,38.13
2024-05-09T04:09:46.637Z,38.12
2024-05-09T04:10:46.642Z,38.11
2024-05-09T04:11:46.692Z,38.10
2024-05-09T04:12:46.553Z,38.09
2024-05-09T04:13:46.544Z,38.09
2024-05-09T04:14:46.499Z,38.09
2024-05-09T04:15:46.498Z,38.08
2024-05-09T04:16:46.510Z,38.07
2024-05-09T04:17:46.520Z,38.07
2024-05-09T04:18:46.439Z,38.08
2024-05-09T04:19:46.359Z,38.07
2024-05-09T04:20:47.135Z,38.06
2024-05-09T04:21:46.245Z,38.06
2024-05-09T04:22:46.327Z,38.07
2024-05-09T04:23:46.252Z,38.06
2024-05-09T04:24:46.152Z,38.03
2024-05-09T04:25:46.136Z,38.05
2024-05-09T04:26:46.098Z,38.02
2024-05-09T04:27:46.054Z,38.04
2024-05-09T04:28:46.114Z,38.02
2024-05-09T04:29:45.989Z,38.03
2024-05-09T04:30:45.971Z,38.03
2024-05-09T04:31:45.988Z,37.99
2024-05-09T04:32:46.174Z,38.01
2024-05-09T04:33:46.052Z,38.00
2024-05-09T04:34:45.849Z,38.01
2024-05-09T04:35:45.831Z,38.01
2024-05-09T04:36:45.746Z,37.97
2024-05-09T04:37:45.751Z,37.98
2024-05-09T04:38:45.684Z,37.97
2024-05-09T04:39:45.643Z,37.97
2024-05-09T04:40:45.644Z,37.97
2024-05-09T04:41:45.584Z,37.95
2024-05-09T04:42:45.536Z,37.96
2024-05-09T04:43:45.499Z,37.96
2024-05-09T04:44:45.470Z,37.96
2024-05-09T04:45:45.439Z,37.92
2024-05-09T04:46:45.412Z,37.94
2024-05-09T04:47:52.880Z,37.98
2024-05-09T04:48:52.994Z,37.96
2024-05-09T04:49:52.823Z,37.96
2024-05-09T04:50:52.781Z,37.94
2024-05-09T04:51:52.767Z,37.93
2024-05-09T04:52:52.774Z,37.91
2024-05-09T04:53:52.872Z,37.91
2024-05-09T04:54:54.080Z,37.88
2024-05-09T04:55:52.901Z,37.90
2024-05-09T04:56:52.899Z,37.88
2024-05-09T04:57:52.954Z,37.88
2024-05-09T04:58:53.001Z,37.86
2024-05-09T04:59:53.024Z,37.85
2024-05-09T05:00:53.166Z,37.87
2024-05-09T05:01:53.226Z,37.86
2024-05-09T05:02:53.338Z,37.85
2024-05-09T05:03:54.862Z,37.83
2024-05-09T05:04:53.710Z,37.84
2024-05-09T05:05:53.915Z,37.81
2024-05-09T05:06:53.530Z,37.83
2024-05-09T05:07:53.596Z,37.83
2024-05-09T05:08:53.619Z,37.84
2024-05-09T05:09:53.688Z,37.79
2024-05-09T05:10:53.835Z,37.78
2024-05-09T05:11:53.904Z,37.77
2024-05-09T05:12:53.804Z,37.80
2024-05-09T05:13:53.889Z,37.77
2024-05-09T05:14:53.909Z,37.79
2024-05-09T05:15:53.963Z,37.75
2024-05-09T05:16:54.013Z,37.76
2024-05-09T05:17:54.184Z,37.76
2024-05-09T05:18:54.158Z,37.75
2024-05-09T05:19:54.234Z,37.75
2024-05-09T05:20:54.263Z,37.73
2024-05-09T05:21:54.229Z,37.73
2024-05-09T05:22:54.314Z,37.76
2024-05-09T05:23:54.313Z,37.73
2024-05-09T05:24:54.361Z,37.72
2024-05-09T05:25:55.080Z,37.73
2024-05-09T05:26:54.443Z,37.71
2024-05-09T05:27:54.516Z,37.70
2024-05-09T05:28:54.590Z,37.70
2024-05-09T05:29:54.628Z,37.71
2024-05-09T05:30:54.663Z,37.68
2024-05-09T05:31:54.763Z,37.70
2024-05-09T05:32:54.855Z,37.67
2024-05-09T05:33:54.823Z,37.68
2024-05-09T05:34:54.854Z,37.66
2024-05-09T05:35:54.851Z,37.65
2024-05-09T05:36:54.897Z,37.66
2024-05-09T05:37:54.981Z,37.64
2024-05-09T05:38:55.025Z,37.64
2024-05-09T05:39:55.014Z,37.65
2024-05-09T05:40:55.241Z,37.64
2024-05-09T05:41:55.104Z,37.64
2024-05-09T05:42:55.160Z,37.64
2024-05-09T05:43:55.209Z,37.63
2024-05-09T05:44:55.220Z,37.61
2024-05-09T05:45:55.296Z,37.61
2024-05-09T05:46:55.304Z,37.59
2024-05-09T05:47:55.547Z,37.62
2024-05-09T05:48:55.487Z,37.60
2024-05-09T05:49:55.440Z,37.59
2024-05-09T05:50:55.494Z,37.59
2024-05-09T05:51:55.509Z,37.58
2024-05-09T05:52:55.582Z,37.58
2024-05-09T05:53:55.579Z,37.55
2024-05-09T05:54:55.611Z,37.55
2024-05-09T05:55:55.688Z,37.54
2024-05-09T05:56:55.703Z,37.53
2024-05-09T05:57:55.737Z,37.53
2024-05-09T05:58:55.844Z,37.53
2024-05-09T05:59:55.809Z,37.52
2024-05-09T06:00:55.958Z,37.51
2024-05-09T06:01:55.906Z,37.51
2024-05-09T06:02:55.999Z,37.50
2024-05-09T06:03:56.041Z,37.48
2024-05-09T06:04:56.126Z,37.51
2024-05-09T06:05:56.099Z,37.49
2024-05-09T06:06:56.076Z,37.48
2024-05-09T06:07:56.174Z,37.46
2024-05-09T06:08:56.182Z,37.48
2024-05-09T06:09:56.217Z,37.47
2024-05-09T06:10:56.356Z,37.45
2024-05-09T06:11:56.440Z,37.45
2024-05-09T06:12:56.309Z,37.43
2024-05-09T06:13:56.372Z,37.42
2024-05-09T06:14:56.407Z,37.44
2024-05-09T06:15:56.419Z,37.42
2024-05-09T06:16:58.359Z,37.43
2024-05-09T06:17:56.604Z,37.40
2024-05-09T06:18:56.705Z,37.40
2024-05-09T06:19:56.624Z,37.40
2024-05-09T06:20:56.656Z,37.39
2024-05-09T06:21:56.630Z,37.39
2024-05-09T06:22:56.689Z,37.38
2024-05-09T06:23:56.721Z,37.38
2024-05-09T06:24:56.741Z,37.35
2024-05-09T06:25:56.833Z,37.35
2024-05-09T06:26:56.805Z,37.35
2024-05-09T06:27:56.868Z,37.34
2024-05-09T06:28:56.911Z,37.34
2024-05-09T06:29:56.928Z,37.34
2024-05-09T06:30:56.952Z,37.32
2024-05-09T06:31:59.927Z,37.33
2024-05-09T06:32:57.052Z,37.32
2024-05-09T06:33:57.105Z,37.30
2024-05-09T06:34:56.995Z,37.28
2024-05-09T06:35:56.949Z,37.24
2024-05-09T06:36:56.948Z,37.25
2024-05-09T06:37:56.990Z,37.24
2024-05-09T06:38:56.948Z,37.25
2024-05-09T06:39:56.939Z,37.25
2024-05-09T06:40:57.036Z,37.23
2024-05-09T06:41:56.927Z,37.23
2024-05-09T06:42:56.938Z,37.23
2024-05-09T06:43:56.924Z,37.22
2024-05-09T06:44:56.915Z,37.23
2024-05-09T06:45:56.946Z,37.20
2024-05-09T06:46:59.742Z,37.20
2024-05-09T06:47:57.045Z,37.19
2024-05-09T06:48:57.054Z,37.20
2024-05-09T06:49:56.906Z,37.18
2024-05-09T06:50:56.968Z,37.18
2024-05-09T06:51:56.848Z,37.17
2024-05-09T06:52:56.888Z,37.18
2024-05-09T06:53:56.843Z,37.15
2024-05-09T06:54:56.827Z,37.17
2024-05-09T06:55:56.875Z,37.15
2024-05-09T06:56:56.815Z,37.14
2024-05-09T06:57:56.832Z,37.16
2024-05-09T06:58:56.899Z,37.14
2024-05-09T06:59:56.899Z,37.15
2024-05-09T07:00:56.890Z,37.13
2024-05-09T07:01:56.824Z,37.14
2024-05-09T07:02:57.296Z,37.11
2024-05-09T07:03:56.885Z,37.13
2024-05-09T07:04:56.983Z,37.10
2024-05-09T07:05:56.782Z,37.10
2024-05-09T07:06:56.762Z,37.10
2024-05-09T07:07:56.762Z,37.10
2024-05-09T07:08:56.748Z,37.07
2024-05-09T07:09:56.730Z,37.07
2024-05-09T07:10:56.778Z,37.04
2024-05-09T07:11:56.800Z,37.05
2024-05-09T07:12:56.753Z,37.04
2024-05-09T07:13:56.759Z,37.02
2024-05-09T07:14:57.700Z,37.04
2024-05-09T07:15:56.688Z,37.02
2024-05-09T07:16:56.749Z,36.99
2024-05-09T07:17:56.926Z,36.99
2024-05-09T07:18:56.919Z,36.98
2024-05-09T07:19:56.663Z,36.99
2024-05-09T07:20:56.698Z,36.99
2024-05-09T07:21:56.630Z,36.97
2024-05-09T07:22:56.692Z,36.96
2024-05-09T07:23:56.680Z,36.93
2024-05-09T07:24:56.636Z,36.95
2024-05-09T07:25:56.646Z,36.95
2024-05-09T07:26:56.631Z,36.95
2024-05-09T07:27:56.610Z,36.93
2024-05-09T07:28:56.684Z,36.94
2024-05-09T07:29:56.681Z,36.95
2024-05-09T07:30:56.714Z,36.93
2024-05-09T07:31:56.747Z,36.94
2024-05-09T07:32:57.000Z,36.94
2024-05-09T07:33:56.839Z,36.93
2024-05-09T07:34:56.819Z,36.95
2024-05-09T07:35:56.885Z,36.93
2024-05-09T07:36:56.882Z,36.89
2024-05-09T07:37:56.965Z,36.89
2024-05-09T07:38:56.937Z,36.82
2024-05-09T07:39:56.972Z,36.82
2024-05-09T07:40:57.046Z,36.78
2024-05-09T07:41:57.040Z,36.68
2024-05-09T07:42:57.060Z,36.62
2024-05-09T07:43:57.108Z,36.61
2024-05-09T07:45:00.927Z,36.62
2024-05-09T07:46:07.083Z,36.54
2024-05-09T07:49:44.253Z,36.41
2024-05-09T07:50:35.599Z,36.34
2024-05-09T07:51:33.074Z,36.29
2024-05-09T07:52:39.166Z,36.29
2024-05-09T07:53:21.918Z,36.28
2024-05-09T07:53:59.880Z,36.32
2024-05-09T07:54:57.357Z,36.31
2024-05-09T07:55:57.190Z,36.29
2024-05-09T07:56:57.084Z,36.32
2024-05-09T07:57:56.977Z,36.31
2024-05-09T07:58:56.960Z,36.33
2024-05-09T07:59:56.900Z,36.31
2024-05-09T08:00:56.972Z,36.32
2024-05-09T08:01:57.519Z,36.30
2024-05-09T08:02:56.898Z,36.28
2024-05-09T08:03:57.069Z,36.29
2024-05-09T08:04:56.989Z,36.29
2024-05-09T08:05:56.801Z,36.29
2024-05-09T08:06:56.855Z,36.31
2024-05-09T08:07:56.791Z,36.31
2024-05-09T08:08:57.886Z,36.29
2024-05-09T08:09:56.813Z,36.28
2024-05-09T08:10:57.229Z,36.29
2024-05-09T08:11:56.811Z,36.29
2024-05-09T08:12:56.823Z,36.30
2024-05-09T08:13:56.792Z,36.31
2024-05-09T08:14:56.839Z,36.33
2024-05-09T08:15:56.864Z,36.31
2024-05-09T08:16:56.918Z,36.30
2024-05-09T08:17:57.228Z,36.24
2024-05-09T08:18:57.022Z,36.16
2024-05-09T08:19:56.900Z,36.10
2024-05-09T08:20:56.928Z,36.09
2024-05-09T08:21:57.007Z,36.10
2024-05-09T08:22:56.947Z,36.05
2024-05-09T08:23:56.949Z,36.05
2024-05-09T08:24:57.027Z,36.01
2024-05-09T08:25:56.962Z,35.96
2024-05-09T08:26:56.990Z,35.94
2024-05-09T08:27:57.019Z,35.92
2024-05-09T08:28:57.014Z,35.93
2024-05-09T08:29:57.038Z,35.94
2024-05-09T08:30:57.216Z,35.95
2024-05-09T08:31:57.148Z,35.94
2024-05-09T08:32:57.132Z,35.93
2024-05-09T08:33:57.197Z,35.92
2024-05-09T08:34:57.159Z,35.95
2024-05-09T08:35:57.093Z,35.95
2024-05-09T08:36:59.671Z,35.95
2024-05-09T08:37:57.229Z,35.92
2024-05-09T08:38:57.084Z,35.96
2024-05-09T08:39:57.098Z,35.97
2024-05-09T08:40:57.112Z,35.96
2024-05-09T08:41:57.054Z,35.91
2024-05-09T08:42:57.056Z,35.89
2024-05-09T08:43:57.044Z,35.90
2024-05-09T08:44:57.010Z,35.88
2024-05-09T08:45:57.004Z,35.84
2024-05-09T08:46:56.988Z,35.79
2024-05-09T08:47:57.060Z,35.78
2024-05-09T08:48:57.129Z,35.75
2024-05-09T08:49:57.011Z,35.70
2024-05-09T08:50:56.915Z,35.69
2024-05-09T08:51:56.962Z,35.66
2024-05-09T08:52:56.901Z,35.65
2024-05-09T08:53:56.891Z,35.71
2024-05-09T08:54:56.902Z,35.70
2024-05-09T08:55:56.854Z,35.68
2024-05-09T08:56:56.835Z,35.65
2024-05-09T08:57:56.856Z,35.64
2024-05-09T08:58:56.810Z,35.69
2024-05-09T08:59:56.774Z,35.69
2024-05-09T09:00:56.843Z,35.69
2024-05-09T09:01:56.796Z,35.68
2024-05-09T09:02:56.737Z,35.69
2024-05-09T09:03:56.790Z,35.69
2024-05-09T09:04:56.767Z,35.62
2024-05-09T09:05:56.673Z,35.62
2024-05-09T09:06:58.280Z,35.60
2024-05-09T09:07:56.630Z,35.57
2024-05-09T09:08:56.619Z,35.58
2024-05-09T09:09:56.629Z,35.57
2024-05-09T09:10:56.665Z,35.56
2024-05-09T09:11:57.484Z,35.55
2024-05-09T09:12:56.683Z,35.52
2024-05-09T09:13:56.550Z,35.50
2024-05-09T09:14:56.550Z,35.48
2024-05-09T09:15:56.651Z,35.47
2024-05-09T09:16:56.592Z,35.52
2024-05-09T09:17:56.755Z,35.51
2024-05-09T09:18:56.739Z,35.47
2024-05-09T09:19:56.611Z,35.45
2024-05-09T09:20:56.617Z,35.46
2024-05-09T09:21:56.623Z,35.46
2024-05-09T09:22:56.619Z,35.49
2024-05-09T09:23:57.458Z,35.48
2024-05-09T09:24:56.634Z,35.47
2024-05-09T09:25:56.608Z,35.45
2024-05-09T09:26:56.626Z,35.42
2024-05-09T09:27:56.645Z,35.40
2024-05-09T09:28:56.673Z,35.39
2024-05-09T09:29:56.687Z,35.37
2024-05-09T09:30:56.708Z,35.37
2024-05-09T09:31:56.734Z,35.39
2024-05-09T09:32:56.819Z,35.40
2024-05-09T09:33:57.009Z,35.36
2024-05-09T09:34:56.923Z,35.37
2024-05-09T09:35:56.895Z,35.34
2024-05-09T09:36:56.899Z,35.33
2024-05-09T09:37:56.963Z,35.33
2024-05-09T09:38:56.953Z,35.32
2024-05-09T09:40:57.080Z,35.31
2024-05-09T09:41:57.046Z,35.33
2024-05-09T09:42:57.088Z,35.29
2024-05-09T09:43:57.107Z,35.28
2024-05-09T09:45:04.321Z,35.27
2024-05-09T09:45:58.335Z,35.28
2024-05-09T09:46:57.165Z,35.26
2024-05-09T09:47:57.202Z,35.27
2024-05-09T09:48:57.218Z,35.27
2024-05-09T09:49:57.054Z,35.24
2024-05-09T09:50:57.049Z,35.25
2024-05-09T09:51:57.060Z,35.23
2024-05-09T09:52:57.026Z,35.23
2024-05-09T09:53:57.014Z,35.21
2024-05-09T09:54:57.074Z,35.21
2024-05-09T09:55:57.084Z,35.24
2024-05-09T09:56:57.120Z,35.22
2024-05-09T09:57:57.170Z,35.18
2024-05-09T09:58:57.187Z,35.18
2024-05-09T09:59:57.197Z,35.20
2024-05-09T10:00:57.365Z,35.19
2024-05-09T10:01:57.459Z,35.20
2024-05-09T10:02:57.405Z,35.20
2024-05-09T10:03:57.413Z,35.18
2024-05-09T10:04:57.497Z,35.17
2024-05-09T10:05:57.438Z,35.17
2024-05-09T10:06:57.438Z,35.17
2024-05-09T10:07:57.450Z,35.16
2024-05-09T10:08:57.466Z,35.17
2024-05-09T10:09:57.534Z,35.18
2024-05-09T10:10:57.620Z,35.16
2024-05-09T10:12:57.648Z,35.16
2024-05-09T10:13:57.660Z,35.14
2024-05-09T10:14:57.668Z,35.14
2024-05-09T10:15:57.760Z,35.15
2024-05-09T10:16:57.741Z,35.15
2024-05-09T10:17:57.902Z,35.14
2024-05-09T10:18:58.057Z,35.15
2024-05-09T10:19:57.948Z,35.14
2024-05-09T10:20:58.164Z,35.14
2024-05-09T10:21:57.972Z,35.12
2024-05-09T10:22:57.968Z,35.11
2024-05-09T10:23:57.992Z,35.13
2024-05-09T10:24:58.078Z,35.16
2024-05-09T10:25:58.094Z,35.17
2024-05-09T10:26:58.112Z,35.19
2024-05-09T10:27:58.184Z,35.20
2024-05-09T10:28:58.185Z,35.21
2024-05-09T10:29:58.205Z,35.20
2024-05-09T10:30:58.305Z,35.19
2024-05-09T10:31:58.270Z,35.20
2024-05-09T10:32:58.403Z,35.20
2024-05-09T10:33:58.533Z,35.17
2024-05-09T10:34:58.408Z,35.18
2024-05-09T10:35:58.401Z,35.16
2024-05-09T10:36:58.898Z,35.19
2024-05-09T10:37:58.480Z,35.17
2024-05-09T10:38:58.504Z,35.17
2024-05-09T10:39:58.585Z,35.16
2024-05-09T10:40:58.550Z,35.17
2024-05-09T10:41:58.603Z,35.18
2024-05-09T10:42:59.573Z,35.16
2024-05-09T10:43:58.677Z,35.16
2024-05-09T10:44:58.674Z,35.18
2024-05-09T10:45:58.742Z,35.16
2024-05-09T10:46:58.768Z,35.15
2024-05-09T10:47:58.980Z,35.16
2024-05-09T10:49:58.869Z,35.17
2024-05-09T10:50:58.862Z,35.17
2024-05-09T10:51:58.952Z,35.17
2024-05-09T10:52:58.930Z,35.19
2024-05-09T10:53:58.976Z,35.18
2024-05-09T10:55:00.402Z,35.21
2024-05-09T10:55:59.037Z,35.20
2024-05-09T10:56:59.187Z,35.20
2024-05-09T10:57:59.136Z,35.21
2024-05-09T10:58:59.203Z,35.21
2024-05-09T10:59:59.205Z,35.25
2024-05-09T11:01:00.706Z,35.24
2024-05-09T11:01:59.344Z,35.23
2024-05-09T11:02:59.253Z,35.21
2024-05-09T11:03:59.396Z,35.25
2024-05-09T11:05:59.213Z,35.27
2024-05-09T11:07:00.484Z,35.29
2024-05-09T11:07:59.160Z,35.28
2024-05-09T11:08:59.158Z,35.29
2024-05-09T11:09:59.196Z,35.30
2024-05-09T11:11:00.269Z,35.29
2024-05-09T11:11:59.283Z,35.30
2024-05-09T11:12:59.300Z,35.30
2024-05-09T11:13:59.274Z,35.32
2024-05-09T11:14:59.311Z,35.33
2024-05-09T11:15:59.539Z,35.32
2024-05-09T11:16:59.367Z,35.34
2024-05-09T11:17:59.549Z,35.34
2024-05-09T11:18:59.697Z,35.34
2024-05-09T11:19:59.503Z,35.35
2024-05-09T11:20:59.465Z,35.35
2024-05-09T11:21:59.591Z,35.37
2024-05-09T11:22:59.525Z,35.35
2024-05-09T11:23:59.540Z,35.34
2024-05-09T11:24:59.589Z,35.36
2024-05-09T11:25:59.605Z,35.37
2024-05-09T11:26:59.643Z,35.37
2024-05-09T11:27:59.752Z,35.38
2024-05-09T11:28:59.711Z,35.36
2024-05-09T11:29:59.704Z,35.39
2024-05-09T11:30:59.951Z,35.38
2024-05-09T11:31:59.795Z,35.39
2024-05-09T11:33:00.101Z,35.39
2024-05-09T11:33:59.904Z,35.39
2024-05-09T11:34:59.942Z,35.41
2024-05-09T11:35:59.902Z,35.38
2024-05-09T11:36:59.952Z,35.40
2024-05-09T11:37:59.958Z,35.39
2024-05-09T11:39:00.533Z,35.40
2024-05-09T11:40:00.135Z,35.42
2024-05-09T11:41:00.088Z,35.42
2024-05-09T11:42:00.147Z,35.45
2024-05-09T11:43:00.182Z,35.43
2024-05-09T11:44:00.190Z,35.42
2024-05-09T11:45:00.205Z,35.42
2024-05-09T11:46:00.319Z,35.44
2024-05-09T11:47:00.255Z,35.43
2024-05-09T11:48:00.375Z,35.44
2024-05-09T11:49:00.530Z,35.44
2024-05-09T11:50:00.499Z,35.45
2024-05-09T11:51:00.387Z,35.46
2024-05-09T11:52:00.665Z,35.44
2024-05-09T11:53:00.458Z,35.43
2024-05-09T11:54:00.525Z,35.44
2024-05-09T11:55:00.585Z,35.43
2024-05-09T11:56:00.595Z,35.45
2024-05-09T11:57:00.635Z,35.43
2024-05-09T11:58:00.685Z,35.44
2024-05-09T11:59:00.702Z,35.45
2024-05-09T12:00:01.074Z,35.46
2024-05-09T12:01:00.900Z,35.46
2024-05-09T12:02:00.919Z,35.45
2024-05-09T12:03:00.863Z,35.46
2024-05-09T12:04:01.216Z,35.45
2024-05-09T12:05:00.939Z,35.46
2024-05-09T12:06:01.094Z,35.45
2024-05-09T12:07:00.898Z,35.45
2024-05-09T12:08:00.904Z,35.46
2024-05-09T12:09:00.934Z,35.45
2024-05-09T12:10:00.995Z,35.46
2024-05-09T12:11:01.292Z,35.45
2024-05-09T12:12:01.017Z,35.48
2024-05-09T12:13:01.083Z,35.46
2024-05-09T12:14:01.065Z,35.47
2024-05-09T12:15:01.154Z,35.45
2024-05-09T12:16:01.270Z,35.48
2024-05-09T12:17:01.224Z,35.48
2024-05-09T12:18:03.657Z,35.47
2024-05-09T12:19:01.258Z,35.48
2024-05-09T12:20:01.202Z,35.48
2024-05-09T12:21:01.150Z,35.46
2024-05-09T12:22:01.221Z,35.48
2024-05-09T12:23:01.129Z,35.46
2024-05-09T12:24:01.106Z,35.49
2024-05-09T12:25:01.122Z,35.47
2024-05-09T12:26:01.269Z,35.48
2024-05-09T12:27:01.070Z,35.47
2024-05-09T12:28:01.457Z,35.48
2024-05-09T12:29:01.054Z,35.48
2024-05-09T12:30:01.184Z,35.47
2024-05-09T12:31:01.152Z,35.45
2024-05-09T12:32:01.075Z,35.47
2024-05-09T12:33:01.172Z,35.48
2024-05-09T12:34:01.068Z,35.47
2024-05-09T12:35:00.965Z,35.47
2024-05-09T12:36:01.053Z,35.47
2024-05-09T12:37:00.989Z,35.48
2024-05-09T12:38:00.920Z,35.43
2024-05-09T12:39:00.899Z,35.45
2024-05-09T12:40:00.946Z,35.47
2024-05-09T12:41:00.919Z,35.45
2024-05-09T12:42:00.865Z,35.45
2024-05-09T12:43:00.918Z,35.44
2024-05-09T12:44:00.848Z,35.44
2024-05-09T12:45:01.150Z,35.42
2024-05-09T12:46:00.972Z,35.41
2024-05-09T12:47:00.810Z,35.41
2024-05-09T12:48:01.013Z,35.43
2024-05-09T12:49:01.211Z,35.44
2024-05-09T12:50:00.832Z,35.45
2024-05-09T12:51:00.767Z,35.43
2024-05-09T12:52:00.830Z,35.44
2024-05-09T12:53:01.068Z,35.42
2024-05-09T12:54:00.734Z,35.44
2024-05-09T12:55:00.822Z,35.46
2024-05-09T12:56:02.963Z,35.47
2024-05-09T12:57:00.703Z,35.48
2024-05-09T12:58:00.749Z,35.46
2024-05-09T12:59:00.696Z,35.45